Terminal Aerodrome Forecast
Issued by NWS

Home | Current Version | Previous Version | Text Only | Print | Product List | Glossary On
Versions: 1 2 3 4 5 6 7 8 9 10 11 12 13 14 15 16 17 18 19 20 21 22 23 24 25 26 27 28 29 30 31
000
FTUS44 KOUN 281739
TAFWWR
TAF
KWWR 281739Z 2818/0118 16011KT 3SM -SN OVC025
      TEMPO 2818/2820 2SM -SN BR BKN015
     FM282100 15010KT 5SM -FZDZ BR OVC015
     FM010000 10007KT 1SM BR OVC004=

USA.gov is the U.S. government's official web portal to all federal, state and local government web resources and services.